Time;durP1;ratioP1;P1;durP2;ratioP2;P2;SDS_P1;SDS_P2;PMS_P1;PMS_P2;Temp;Humidity;BMP_temperature;BMP_pressure;BME280_temperature;BME280_humidity;BME280_pressure;Samples;Min_cycle;Max_cycle;Signal;HPM_P1;HPM_P2
2022/12/16 00:01:06;;;;;;;49.63;24.10;;;;;;;8.96;69.48;99047.91;6069610;23;20184;-88
2022/12/16 00:03:32;;;;;;;59.97;26.13;;;;;;;8.90;69.81;99051.66;6046144;23;20153;-88
2022/12/16 00:05:58;;;;;;;53.17;23.17;;;;;;;8.84;69.70;99051.94;6071164;23;20231;-88
2022/12/16 00:08:23;;;;;;;46.03;20.20;;;;;;;8.82;69.17;99043.34;6070740;23;20594;-88
2022/12/16 00:10:51;;;;;;;47.27;19.37;;;;;;;8.77;69.58;99034.88;6070852;23;20146;-88
2022/12/16 00:13:17;;;;;;;37.60;17.20;;;;;;;8.76;69.89;99037.53;6071269;23;20153;-88
2022/12/16 00:15:45;;;;;;;49.27;19.13;;;;;;;8.74;69.72;99031.53;6070872;23;20236;-88
2022/12/16 00:18:11;;;;;;;44.90;19.20;;;;;;;8.67;69.65;99031.00;6069635;23;20539;-88
2022/12/16 00:20:36;;;;;;;50.47;17.80;;;;;;;8.68;69.44;99037.91;6071124;23;20212;-88
2022/12/16 00:23:02;;;;;;;35.53;17.60;;;;;;;8.72;69.62;99036.84;6045665;23;20157;-87
2022/12/16 00:25:27;;;;;;;43.73;17.60;;;;;;;8.77;69.78;99041.84;6070814;23;20160;-88
2022/12/16 00:27:53;;;;;;;53.60;18.90;;;;;;;8.83;69.51;99055.47;6070870;23;20198;-88
2022/12/16 00:30:18;;;;;;;42.20;18.97;;;;;;;8.83;68.98;99057.25;6071204;23;20172;-89
2022/12/16 00:32:43;;;;;;;43.03;17.87;;;;;;;8.76;69.42;99048.84;6070831;23;20176;-88
2022/12/16 00:35:09;;;;;;;42.90;17.63;;;;;;;8.72;69.55;99042.06;6045623;23;20236;-88
2022/12/16 00:37:34;;;;;;;39.67;18.43;;;;;;;8.71;69.29;99042.13;6070877;23;20270;-88
2022/12/16 00:40:00;;;;;;;54.50;18.77;;;;;;;8.70;69.42;99037.84;6070882;23;20253;-88
2022/12/16 00:42:25;;;;;;;58.30;21.90;;;;;;;8.67;69.39;99048.44;6070700;23;20632;-88
2022/12/16 00:44:51;;;;;;;47.97;20.87;;;;;;;8.69;69.40;99052.66;6070224;23;20179;-88
2022/12/16 00:47:16;;;;;;;45.00;19.80;;;;;;;8.73;69.47;99048.97;6067955;23;20161;-88
2022/12/16 00:49:42;;;;;;;34.77;15.90;;;;;;;8.70;69.62;99061.34;6069795;23;20164;-87
2022/12/16 00:52:07;;;;;;;41.67;18.33;;;;;;;8.67;70.50;99064.97;6069086;23;20148;-88
2022/12/16 00:54:32;;;;;;;40.43;16.03;;;;;;;8.71;70.65;99060.41;6069158;23;20580;-88
2022/12/16 00:56:58;;;;;;;39.03;17.20;;;;;;;8.77;70.14;99065.38;6069336;23;20224;-88
2022/12/16 00:59:23;;;;;;;41.20;16.00;;;;;;;8.64;71.33;99067.72;6069092;23;20153;-88
2022/12/16 01:01:49;;;;;;;27.70;14.47;;;;;;;8.61;72.12;99075.69;6068883;23;20177;-88
2022/12/16 01:04:14;;;;;;;35.33;16.07;;;;;;;8.71;73.08;99078.72;6068284;23;20165;-89
2022/12/16 01:06:40;;;;;;;39.67;15.73;;;;;;;8.84;74.46;99077.22;6067856;23;20168;-88
2022/12/16 01:09:05;;;;;;;45.80;17.03;;;;;;;8.94;77.18;99073.25;6069156;23;20167;-88
2022/12/16 01:11:30;;;;;;;33.33;15.67;;;;;;;8.77;78.90;99071.44;6069058;23;20215;-88
2022/12/16 01:13:56;;;;;;;40.23;17.53;;;;;;;8.84;80.06;99061.53;6068982;23;20164;-89
2022/12/16 01:16:21;;;;;;;43.53;18.77;;;;;;;8.87;80.70;99072.72;6069358;23;20179;-89
2022/12/16 01:18:47;;;;;;;53.63;20.33;;;;;;;8.82;81.29;99074.69;6069594;23;20160;-88
2022/12/16 01:21:14;;;;;;;42.10;21.53;;;;;;;8.90;81.14;99062.13;6067697;23;20181;-89
2022/12/16 01:23:40;;;;;;;55.43;19.87;;;;;;;8.97;80.95;99060.91;6068981;23;20169;-88
2022/12/16 01:26:05;;;;;;;47.97;20.37;;;;;;;8.96;81.03;99055.75;6069199;23;20152;-88
2022/12/16 01:28:31;;;;;;;51.20;19.73;;;;;;;9.06;80.44;99051.78;6068828;23;20486;-88
2022/12/16 01:31:00;;;;;;;44.20;19.37;;;;;;;9.18;80.60;99048.56;6069164;23;20232;-89
2022/12/16 01:33:30;;;;;;;51.43;19.80;;;;;;;9.32;80.05;99030.44;6067662;23;20243;-88
2022/12/16 01:36:05;;;;;;;50.23;18.70;;;;;;;9.40;79.82;99033.53;6044058;23;20239;-88
2022/12/16 01:38:31;;;;;;;49.80;19.57;;;;;;;9.45;79.64;99028.06;6068845;23;20224;-88
2022/12/16 01:40:57;;;;;;;50.50;19.80;;;;;;;9.50;79.34;99031.31;6067409;23;20181;-88
2022/12/16 01:43:28;;;;;;;51.83;18.67;;;;;;;9.47;78.73;99024.47;6069015;23;20153;-88
2022/12/16 01:46:12;;;;;;;47.57;19.03;;;;;;;9.48;78.22;99020.06;6069123;23;20271;-88
2022/12/16 01:48:57;;;;;;;47.70;20.47;;;;;;;9.53;77.69;99018.94;6068658;23;20140;-88
2022/12/16 01:51:29;;;;;;;43.70;18.13;;;;;;;9.52;77.03;99008.53;6043510;23;20251;-88
2022/12/16 01:54:04;;;;;;;48.27;19.50;;;;;;;9.51;76.19;99022.53;6068916;23;20244;-88
2022/12/16 01:56:31;;;;;;;41.80;17.83;;;;;;;9.52;75.82;99024.22;6066976;23;20603;-88
2022/12/16 01:58:58;;;;;;;39.47;15.27;;;;;;;9.48;76.05;99033.16;6068503;23;20174;-88
2022/12/16 02:01:24;;;;;;;46.53;16.50;;;;;;;9.46;76.83;99045.47;6068371;23;20220;-89
2022/12/16 02:03:53;;;;;;;38.40;15.33;;;;;;;9.51;76.98;99038.25;6043518;23;20251;-88
2022/12/16 02:06:19;;;;;;;27.10;10.63;;;;;;;9.51;77.28;99030.41;6067377;23;20244;-89
2022/12/16 02:08:44;;;;;;;23.80;9.67;;;;;;;9.34;79.50;99039.06;6068925;23;20161;-88
2022/12/16 02:11:27;;;;;;;59.13;13.27;;;;;;;9.24;80.44;99041.28;6064296;23;20162;-88
2022/12/16 02:14:13;;;;;;;63.97;15.27;;;;;;;9.27;80.51;99050.75;6069083;23;20140;-88
2022/12/16 02:16:58;;;;;;;38.77;15.00;;;;;;;9.24;79.85;99046.53;6043457;23;20148;-88
2022/12/16 02:20:02;;;;;;;71.80;16.13;;;;;;;9.34;79.90;99049.53;6069221;23;20463;-89
2022/12/16 02:22:40;;;;;;;45.03;15.00;;;;;;;9.40;80.21;99045.78;6044562;23;20199;-88
2022/12/16 02:25:36;;;;;;;38.83;14.97;;;;;;;9.32;81.28;99037.44;6068363;23;20156;-88
2022/12/16 02:28:22;;;;;;;40.33;14.63;;;;;;;9.45;80.70;99042.00;6043351;23;20179;-88
2022/12/16 02:30:59;;;;;;;48.00;16.63;;;;;;;9.53;80.92;99031.16;6068633;23;20176;-88
2022/12/16 02:33:50;;;;;;;46.63;17.43;;;;;;;9.66;80.60;99027.00;6069021;23;20214;-88
2022/12/16 02:36:29;;;;;;;45.47;17.17;;;;;;;9.73;80.59;99023.13;6067121;23;20156;-88
2022/12/16 02:39:03;;;;;;;58.17;19.13;;;;;;;9.78;80.54;99021.13;6068096;23;20141;-88
2022/12/16 02:41:37;;;;;;;38.87;17.00;;;;;;;9.78;80.45;99026.38;6066902;23;20177;-88
2022/12/16 02:44:09;;;;;;;50.73;18.23;;;;;;;9.80;80.75;99024.53;6043183;23;20527;-88
2022/12/16 02:46:51;;;;;;;48.10;19.77;;;;;;;9.85;80.94;99025.97;6043112;23;20153;-88
2022/12/16 02:49:17;;;;;;;57.30;18.80;;;;;;;9.89;80.88;99031.91;6068516;23;20144;-88
2022/12/16 02:51:43;;;;;;;49.43;17.10;;;;;;;9.98;80.40;99020.97;6068021;23;20173;-88
2022/12/16 02:54:10;;;;;;;40.53;16.13;;;;;;;10.08;79.82;99013.47;6043155;23;20161;-89
2022/12/16 02:57:02;;;;;;;47.00;19.50;;;;;;;10.03;80.05;99012.88;6068188;23;20149;-88
2022/12/16 02:59:46;;;;;;;50.33;17.90;;;;;;;9.99;80.32;99006.94;6058355;23;20196;-88
2022/12/16 03:02:21;;;;;;;38.77;15.97;;;;;;;10.03;80.32;99016.34;6068395;23;20236;-88
2022/12/16 03:05:05;;;;;;;51.77;17.70;;;;;;;10.14;80.28;99013.19;6069060;23;20176;-89
2022/12/16 03:07:35;;;;;;;44.00;18.13;;;;;;;10.22;79.83;99017.06;6068943;23;20530;-88
2022/12/16 03:10:05;;;;;;;43.40;18.53;;;;;;;10.28;79.42;99018.53;6042870;23;20168;-89
2022/12/16 03:12:33;;;;;;;43.80;17.30;;;;;;;10.30;79.21;99019.28;6068066;23;20148;-88
2022/12/16 03:14:59;;;;;;;50.10;17.73;;;;;;;10.32;79.38;99012.22;6042889;23;20160;-89
2022/12/16 03:17:27;;;;;;;42.43;17.77;;;;;;;10.38;79.15;99011.88;6067894;23;20157;-89
2022/12/16 03:20:03;;;;;;;42.07;16.97;;;;;;;10.40;79.11;99023.13;6066762;23;20161;-89
2022/12/16 03:22:33;;;;;;;44.80;16.63;;;;;;;10.39;78.61;99022.28;6067917;23;20663;-88
2022/12/16 03:24:58;;;;;;;43.83;17.40;;;;;;;10.41;78.75;99011.69;6068026;23;20160;-89
2022/12/16 03:27:26;;;;;;;38.90;16.60;;;;;;;10.38;78.87;99017.09;6042863;23;20498;-89
2022/12/16 03:30:05;;;;;;;46.10;17.17;;;;;;;10.42;78.75;99022.13;6043898;23;20161;-89
2022/12/16 03:32:39;;;;;;;44.17;18.33;;;;;;;10.48;78.85;99029.63;6068335;23;20134;-89
2022/12/16 03:35:13;;;;;;;48.43;18.10;;;;;;;10.49;78.79;99035.72;6068647;23;20172;-89
2022/12/16 03:37:42;;;;;;;40.23;16.10;;;;;;;10.52;78.20;99032.09;6067936;23;20582;-89
2022/12/16 03:40:09;;;;;;;46.07;15.93;;;;;;;10.48;77.86;99027.00;6067871;23;20149;-89
2022/12/16 03:42:36;;;;;;;40.77;17.10;;;;;;;10.39;77.43;99030.16;6067970;23;20189;-89
2022/12/16 03:45:05;;;;;;;44.60;17.23;;;;;;;10.36;77.69;99030.31;6043185;23;20322;-89
2022/12/16 03:47:31;;;;;;;41.67;17.10;;;;;;;10.37;76.70;99029.38;6068211;23;20574;-89
2022/12/16 03:49:56;;;;;;;48.67;16.83;;;;;;;10.44;76.86;99033.34;6067823;23;20227;-89
2022/12/16 03:52:22;;;;;;;45.27;16.10;;;;;;;10.47;76.43;99030.56;6067037;23;20157;-89
2022/12/16 03:54:47;;;;;;;48.07;16.83;;;;;;;10.38;76.50;99036.28;6067765;23;20176;-89
2022/12/16 03:57:13;;;;;;;42.80;17.33;;;;;;;10.36;76.40;99019.81;6067938;23;20500;-90
2022/12/16 03:59:38;;;;;;;41.80;18.23;;;;;;;10.34;76.71;99016.44;6066389;23;20157;-89
2022/12/16 04:02:04;;;;;;;37.93;16.73;;;;;;;10.41;76.43;99017.78;6066496;23;20244;-89
2022/12/16 04:04:29;;;;;;;41.03;16.50;;;;;;;10.37;76.63;99026.75;6068040;23;20153;-89
2022/12/16 04:09:51;;;;;;;40.70;16.00;;;;;;;10.57;75.69;99027.44;6043120;23;20207;-88
2022/12/16 04:26:00;;;;;;;40.37;16.83;;;;;;;10.55;75.91;99064.22;6070191;23;20610;-89
2022/12/16 04:28:25;;;;;;;54.27;18.23;;;;;;;10.60;75.88;99066.59;6044342;23;20154;-89
2022/12/16 04:30:51;;;;;;;37.23;16.03;;;;;;;10.60;75.68;99067.44;6069811;23;20214;-89
